createdAt,value
2022-12-05T00:00:35.937Z,15.93
2022-12-05T00:02:39.056Z,16.93
2022-12-05T00:04:42.270Z,16.23
2022-12-05T00:06:46.626Z,16.70
2022-12-05T00:08:50.397Z,15.63
2022-12-05T00:10:53.463Z,15.37
2022-12-05T00:12:56.630Z,16.60
2022-12-05T00:14:59.661Z,18.03
2022-12-05T00:17:02.809Z,15.33
2022-12-05T00:19:06.952Z,16.40
2022-12-05T00:21:14.851Z,15.43
2022-12-05T00:23:19.426Z,15.23
2022-12-05T00:25:22.314Z,16.30
2022-12-05T00:27:25.238Z,17.00
2022-12-05T00:29:28.267Z,17.03
2022-12-05T00:31:31.230Z,15.80
2022-12-05T00:33:34.392Z,16.67
2022-12-05T00:35:38.581Z,17.50
2022-12-05T00:37:41.604Z,16.47
2022-12-05T00:39:46.173Z,17.70
2022-12-05T00:41:49.070Z,16.40
2022-12-05T00:43:52.438Z,16.10
2022-12-05T00:45:55.402Z,17.50
2022-12-05T00:47:58.373Z,16.47
2022-12-05T00:50:01.261Z,15.70
2022-12-05T00:52:04.186Z,16.37
2022-12-05T00:54:08.639Z,16.50
2022-12-05T00:56:15.943Z,18.23
2022-12-05T00:58:18.794Z,17.37
2022-12-05T01:00:21.942Z,15.50
2022-12-05T01:02:24.811Z,17.20
2022-12-05T01:04:27.856Z,16.87
2022-12-05T01:06:31.003Z,16.77
2022-12-05T01:08:34.658Z,17.27
2022-12-05T01:10:39.058Z,17.13
2022-12-05T01:12:43.432Z,17.10
2022-12-05T01:14:46.544Z,16.33
2022-12-05T01:16:51.201Z,18.30
2022-12-05T01:18:54.479Z,17.63
2022-12-05T01:20:57.773Z,16.20
2022-12-05T01:23:01.043Z,16.30
2022-12-05T01:25:05.155Z,16.33
2022-12-05T01:27:08.403Z,17.57
2022-12-05T01:29:13.910Z,17.37
2022-12-05T01:31:20.315Z,16.63
2022-12-05T01:33:23.246Z,15.80
2022-12-05T01:35:27.035Z,17.63
2022-12-05T01:37:29.912Z,16.23
2022-12-05T01:39:32.768Z,15.63
2022-12-05T01:41:37.244Z,16.00
2022-12-05T01:43:55.228Z,16.23
2022-12-05T01:45:59.547Z,16.70
2022-12-05T01:48:05.167Z,15.37
2022-12-05T01:50:09.551Z,16.20
2022-12-05T01:52:15.404Z,17.30
2022-12-05T01:54:19.538Z,16.40
2022-12-05T01:56:22.669Z,17.70
2022-12-05T01:58:29.762Z,15.47
2022-12-05T02:00:32.940Z,16.63
2022-12-05T02:02:37.320Z,16.33
2022-12-05T02:04:47.467Z,16.90
2022-12-05T02:06:50.342Z,15.33
2022-12-05T02:08:54.158Z,17.27
2022-12-05T02:10:58.644Z,15.93
2022-12-05T02:13:07.443Z,16.13
2022-12-05T02:15:28.347Z,16.40
2022-12-05T02:17:40.260Z,17.13
2022-12-05T02:19:57.076Z,16.70
2022-12-05T02:22:15.495Z,17.63
2022-12-05T02:24:34.642Z,15.90
2022-12-05T02:26:49.486Z,16.30
2022-12-05T02:29:04.061Z,15.70
2022-12-05T02:31:12.293Z,16.67
2022-12-05T02:33:22.385Z,15.83
2022-12-05T02:35:39.041Z,16.00
2022-12-05T02:37:45.847Z,15.73
2022-12-05T02:39:54.254Z,15.23
2022-12-05T02:42:03.371Z,16.20
2022-12-05T02:44:09.179Z,16.20
2022-12-05T02:46:15.937Z,16.40
2022-12-05T02:48:20.037Z,16.27
2022-12-05T02:50:33.542Z,14.87
2022-12-05T02:52:37.092Z,16.77
2022-12-05T02:54:42.824Z,15.00
2022-12-05T02:56:47.183Z,16.83
2022-12-05T02:58:53.263Z,14.90
2022-12-05T03:00:58.111Z,16.00
2022-12-05T03:03:02.610Z,16.63
2022-12-05T03:05:14.095Z,15.83
2022-12-05T03:07:18.048Z,16.40
2022-12-05T03:09:23.725Z,14.27
2022-12-05T03:11:27.605Z,15.60
2022-12-05T03:13:34.246Z,15.50
2022-12-05T03:15:39.648Z,14.93
2022-12-05T03:17:45.396Z,16.20
2022-12-05T03:19:53.828Z,17.20
2022-12-05T03:22:02.196Z,16.17
2022-12-05T03:24:08.082Z,16.80
2022-12-05T03:26:17.368Z,14.83
2022-12-05T03:28:25.231Z,14.17
2022-12-05T03:30:28.132Z,15.87
2022-12-05T03:32:35.493Z,14.67
2022-12-05T03:34:57.697Z,15.17
2022-12-05T03:37:04.459Z,16.17
2022-12-05T03:39:11.626Z,15.87
2022-12-05T03:41:18.705Z,15.03
2022-12-05T03:43:25.697Z,14.90
2022-12-05T03:45:33.121Z,14.43
2022-12-05T03:47:42.161Z,15.30
2022-12-05T03:49:48.126Z,15.97
2022-12-05T03:51:54.876Z,16.40
2022-12-05T03:54:00.161Z,17.03
2022-12-05T03:56:06.654Z,16.30
2022-12-05T03:58:12.298Z,15.03
2022-12-05T04:00:19.436Z,16.13
2022-12-05T04:02:27.122Z,16.83
2022-12-05T04:04:33.181Z,16.17
2022-12-05T04:06:39.103Z,16.30
2022-12-05T04:08:46.602Z,17.20
2022-12-05T04:10:50.890Z,16.37
2022-12-05T04:12:56.167Z,16.57
2022-12-05T04:15:01.003Z,16.17
2022-12-05T04:17:05.161Z,15.80
2022-12-05T04:19:11.341Z,15.90
2022-12-05T04:21:32.086Z,15.37
2022-12-05T04:23:35.851Z,15.20
2022-12-05T04:25:47.671Z,15.70
2022-12-05T04:27:56.032Z,15.47
2022-12-05T04:30:04.757Z,16.47
2022-12-05T04:32:10.027Z,15.97
2022-12-05T04:34:15.702Z,14.10
2022-12-05T04:36:21.563Z,15.23
2022-12-05T04:38:26.637Z,15.50
2022-12-05T04:40:34.278Z,15.47
2022-12-05T04:42:39.603Z,15.37
2022-12-05T04:44:46.602Z,15.90
2022-12-05T04:46:51.362Z,15.90
2022-12-05T04:48:57.531Z,15.70
2022-12-05T04:51:00.520Z,15.53
2022-12-05T04:53:04.826Z,14.80
2022-12-05T04:55:11.029Z,15.43
2022-12-05T04:57:17.080Z,15.20
2022-12-05T04:59:21.273Z,15.73
2022-12-05T05:01:26.544Z,15.53
2022-12-05T05:03:32.947Z,15.00
2022-12-05T05:05:36.463Z,14.77
2022-12-05T05:07:44.907Z,15.30
2022-12-05T05:09:47.932Z,16.43
2022-12-05T05:11:50.805Z,17.50
2022-12-05T05:13:54.295Z,15.27
2022-12-05T05:15:58.847Z,15.20
2022-12-05T05:18:01.753Z,15.60
2022-12-05T05:20:20.206Z,14.97
2022-12-05T05:22:23.404Z,14.77
2022-12-05T05:24:26.504Z,15.00
2022-12-05T05:26:30.578Z,14.40
2022-12-05T05:28:33.449Z,14.03
2022-12-05T05:30:36.685Z,13.87
2022-12-05T05:32:40.926Z,13.67
2022-12-05T05:34:43.842Z,15.97
2022-12-05T05:36:46.992Z,14.47
2022-12-05T05:38:51.688Z,13.73
2022-12-05T05:40:54.647Z,13.97
2022-12-05T05:42:59.091Z,14.30
2022-12-05T05:45:01.981Z,14.00
2022-12-05T05:47:05.088Z,14.40
2022-12-05T05:49:09.543Z,13.70
2022-12-05T05:51:13.701Z,14.20
2022-12-05T05:53:16.577Z,14.20
2022-12-05T05:55:19.721Z,14.40
2022-12-05T05:57:22.586Z,15.30
2022-12-05T05:59:25.454Z,15.20
2022-12-05T06:01:29.581Z,15.60
2022-12-05T06:03:32.882Z,14.87
2022-12-05T06:05:37.517Z,14.90
2022-12-05T06:07:40.837Z,14.07
2022-12-05T06:09:44.039Z,12.60
2022-12-05T06:11:47.115Z,14.40
2022-12-05T06:13:50.229Z,15.10
2022-12-05T06:15:53.654Z,16.00
2022-12-05T06:17:57.807Z,15.47
2022-12-05T06:20:01.159Z,14.87
2022-12-05T06:22:05.585Z,14.10
2022-12-05T06:24:10.241Z,14.27
2022-12-05T06:26:15.255Z,14.40
2022-12-05T06:28:18.929Z,14.07
2022-12-05T06:30:22.008Z,16.20
2022-12-05T06:32:25.216Z,16.43
2022-12-05T06:34:28.216Z,16.00
2022-12-05T06:36:32.099Z,16.10
2022-12-05T06:38:41.599Z,15.57
2022-12-05T06:40:46.924Z,14.40
2022-12-05T06:42:50.080Z,14.40
2022-12-05T06:44:53.051Z,14.37
2022-12-05T06:46:56.625Z,13.23
2022-12-05T06:49:00.412Z,12.87
2022-12-05T06:51:03.634Z,13.13
2022-12-05T06:53:06.809Z,12.60
2022-12-05T06:55:12.053Z,13.23
2022-12-05T06:57:15.258Z,12.87
2022-12-05T06:59:18.402Z,11.57
2022-12-05T07:01:44.073Z,13.70
2022-12-05T07:03:49.364Z,13.17
2022-12-05T07:05:52.843Z,12.93
2022-12-05T07:07:56.263Z,11.67
2022-12-05T07:09:59.695Z,12.07
2022-12-05T07:12:04.127Z,11.30
2022-12-05T07:14:19.159Z,11.63
2022-12-05T07:16:27.940Z,10.93
2022-12-05T07:18:30.907Z,11.53
2022-12-05T07:20:49.545Z,10.70
2022-12-05T07:22:56.986Z,10.40
2022-12-05T07:25:00.219Z,10.83
2022-12-05T07:27:04.806Z,10.93
2022-12-05T07:29:07.872Z,10.40
2022-12-05T07:31:13.937Z,10.10
2022-12-05T07:33:16.839Z,12.83
2022-12-05T07:35:19.755Z,10.43
2022-12-05T07:37:22.757Z,11.63
2022-12-05T07:39:25.617Z,11.83
2022-12-05T07:41:30.474Z,11.27
2022-12-05T07:43:34.706Z,11.30
2022-12-05T07:45:37.834Z,12.00
2022-12-05T07:47:40.818Z,12.20
2022-12-05T07:49:43.791Z,12.70
2022-12-05T07:51:46.646Z,10.90
2022-12-05T07:53:49.675Z,10.50
2022-12-05T07:55:52.862Z,13.90
2022-12-05T07:57:55.739Z,18.73
2022-12-05T08:00:00.548Z,14.07
2022-12-05T08:02:03.803Z,11.90
2022-12-05T08:04:10.717Z,10.93
2022-12-05T08:06:18.985Z,10.37
2022-12-05T08:08:22.339Z,11.73
2022-12-05T08:10:25.323Z,12.10
2022-12-05T08:12:28.460Z,11.20
2022-12-05T08:14:31.304Z,10.10
2022-12-05T08:16:35.865Z,10.60
2022-12-05T08:18:39.600Z,11.70
2022-12-05T08:20:42.867Z,10.57
2022-12-05T08:22:45.756Z,11.20
2022-12-05T08:24:56.175Z,10.60
2022-12-05T08:26:59.483Z,10.30
2022-12-05T08:29:04.649Z,10.83
2022-12-05T08:31:10.033Z,10.80
2022-12-05T08:33:14.402Z,10.77
2022-12-05T08:35:17.293Z,11.43
2022-12-05T08:37:20.561Z,9.83
2022-12-05T08:39:23.477Z,13.10
2022-12-05T08:41:28.856Z,11.60
2022-12-05T08:43:32.344Z,11.10
2022-12-05T08:45:35.153Z,10.43
2022-12-05T08:47:38.038Z,10.30
2022-12-05T08:49:42.272Z,10.50
2022-12-05T08:51:45.377Z,9.90
2022-12-05T08:53:48.721Z,9.67
2022-12-05T08:55:51.784Z,11.83
2022-12-05T08:57:54.824Z,10.67
2022-12-05T08:59:58.724Z,13.00
2022-12-05T09:02:02.106Z,12.57
2022-12-05T09:04:06.204Z,12.03
2022-12-05T09:06:12.053Z,12.63
2022-12-05T09:08:15.091Z,12.80
2022-12-05T09:10:18.695Z,13.43
2022-12-05T09:12:21.633Z,14.43
2022-12-05T09:14:25.398Z,12.57
2022-12-05T09:16:36.526Z,11.03
2022-12-05T09:18:40.376Z,11.20
2022-12-05T09:20:43.308Z,12.03
2022-12-05T09:22:47.854Z,11.90
2022-12-05T09:24:50.859Z,11.33
2022-12-05T09:26:53.777Z,12.17
2022-12-05T09:28:57.042Z,10.40
2022-12-05T09:31:02.015Z,10.40
2022-12-05T09:33:05.301Z,11.20
2022-12-05T09:35:08.978Z,10.33
2022-12-05T09:37:37.555Z,9.50
2022-12-05T09:39:37.609Z,12.17
2022-12-05T09:42:09.065Z,10.10
2022-12-05T09:44:17.914Z,10.93
2022-12-05T09:46:28.396Z,11.93
2022-12-05T09:48:33.941Z,12.40
2022-12-05T09:50:43.249Z,11.10
2022-12-05T09:53:11.907Z,11.93
2022-12-05T09:55:18.827Z,11.57
2022-12-05T09:57:33.533Z,11.77
2022-12-05T09:59:37.260Z,11.10
2022-12-05T10:01:43.277Z,12.23
2022-12-05T10:03:48.820Z,11.60
2022-12-05T10:05:56.942Z,12.13
2022-12-05T10:08:07.142Z,12.37
2022-12-05T10:10:25.658Z,12.40
2022-12-05T10:12:44.314Z,11.10
2022-12-05T10:14:53.286Z,9.93
2022-12-05T10:16:58.131Z,12.43
2022-12-05T10:19:04.858Z,11.20
2022-12-05T10:21:14.539Z,13.47
2022-12-05T10:23:48.956Z,12.03
2022-12-05T10:25:45.009Z,10.90
2022-12-05T10:27:51.278Z,10.17
2022-12-05T10:30:00.870Z,11.57
2022-12-05T10:32:06.980Z,11.17
2022-12-05T10:34:15.017Z,12.53
2022-12-05T10:36:18.128Z,10.80
2022-12-05T10:38:25.274Z,11.30
2022-12-05T10:40:33.458Z,10.40
2022-12-05T10:42:37.976Z,10.73
2022-12-05T10:44:41.243Z,10.70
2022-12-05T10:46:44.317Z,11.73
2022-12-05T10:48:47.454Z,11.60
2022-12-05T10:50:53.228Z,11.00
2022-12-05T10:52:57.914Z,9.80
2022-12-05T10:55:04.222Z,12.47
2022-12-05T10:57:21.826Z,11.87
2022-12-05T10:59:28.331Z,11.03
2022-12-05T11:01:31.538Z,11.50
2022-12-05T11:03:39.840Z,12.30
2022-12-05T11:05:42.992Z,11.80
2022-12-05T11:07:49.701Z,11.50
2022-12-05T11:09:53.668Z,12.73
2022-12-05T11:12:14.602Z,12.20
2022-12-05T11:14:23.467Z,13.03
2022-12-05T11:16:30.883Z,12.10
2022-12-05T11:18:35.564Z,12.17
2022-12-05T11:20:41.796Z,11.50
2022-12-05T11:22:48.733Z,10.90
2022-12-05T11:24:52.007Z,11.50
2022-12-05T11:26:56.541Z,11.57
2022-12-05T11:28:59.499Z,10.53
2022-12-05T11:31:04.104Z,10.57
2022-12-05T11:33:17.386Z,11.17
2022-12-05T11:35:26.967Z,10.87
2022-12-05T11:37:32.946Z,11.40
2022-12-05T11:39:35.857Z,10.83
2022-12-05T11:41:55.482Z,11.10
2022-12-05T11:44:11.010Z,9.83
2022-12-05T11:46:26.439Z,10.70
2022-12-05T11:48:46.669Z,11.03
2022-12-05T11:50:56.740Z,9.83
2022-12-05T11:53:12.261Z,11.70
2022-12-05T11:55:18.027Z,11.20
2022-12-05T11:57:29.843Z,11.73
2022-12-05T12:00:03.402Z,12.07
2022-12-05T12:02:25.869Z,10.80
2022-12-05T12:04:38.753Z,13.60
2022-12-05T12:06:49.222Z,12.53
2022-12-05T12:09:02.512Z,12.67
2022-12-05T12:11:13.889Z,13.10
2022-12-05T12:13:30.413Z,12.07
2022-12-05T12:15:46.571Z,14.23
2022-12-05T12:17:56.963Z,13.47
2022-12-05T12:20:19.975Z,13.43
2022-12-05T12:22:35.425Z,13.80
2022-12-05T12:25:02.823Z,14.10
2022-12-05T12:27:14.867Z,14.10
2022-12-05T12:29:26.352Z,13.53
2022-12-05T12:31:37.236Z,13.47
2022-12-05T12:33:44.930Z,13.60
2022-12-05T12:35:52.707Z,13.53
2022-12-05T12:38:08.577Z,13.70
2022-12-05T12:40:16.216Z,14.80
2022-12-05T12:42:25.910Z,14.20
2022-12-05T12:44:51.656Z,15.37
2022-12-05T12:46:57.189Z,13.83
2022-12-05T12:49:12.619Z,15.73
2022-12-05T12:51:17.180Z,14.17
2022-12-05T12:53:47.125Z,14.43
2022-12-05T12:55:54.237Z,13.30
2022-12-05T12:58:07.770Z,13.57
2022-12-05T13:00:18.881Z,13.87
2022-12-05T13:02:28.156Z,13.50
2022-12-05T13:04:34.579Z,13.63
2022-12-05T13:06:43.379Z,14.17
2022-12-05T13:08:49.963Z,12.90
2022-12-05T13:10:53.520Z,13.13
2022-12-05T13:12:57.106Z,13.33
2022-12-05T13:15:02.400Z,14.43
2022-12-05T13:17:07.995Z,14.10
2022-12-05T13:19:24.860Z,14.23
2022-12-05T13:21:28.760Z,13.40
2022-12-05T13:23:35.434Z,15.43
2022-12-05T13:25:40.174Z,16.00
2022-12-05T13:27:55.377Z,15.50
2022-12-05T13:30:01.338Z,14.50
2022-12-05T13:32:05.626Z,15.23
2022-12-05T13:34:48.670Z,15.83
2022-12-05T13:37:09.115Z,16.93
2022-12-05T13:39:37.916Z,16.30
2022-12-05T13:42:00.115Z,15.23
2022-12-05T13:44:06.763Z,15.37
2022-12-05T13:46:12.062Z,16.13
2022-12-05T13:48:23.028Z,16.20
2022-12-05T13:50:31.778Z,16.27
2022-12-05T13:52:42.608Z,14.60
2022-12-05T13:54:51.158Z,13.93
2022-12-05T13:56:55.909Z,15.47
2022-12-05T13:58:59.535Z,13.90
2022-12-05T14:01:40.772Z,14.47
2022-12-05T14:03:58.310Z,14.30
2022-12-05T14:06:01.863Z,15.93
2022-12-05T14:08:46.426Z,15.50
2022-12-05T14:11:14.276Z,15.03
2022-12-05T14:13:42.675Z,17.30
2022-12-05T14:15:46.578Z,17.73
2022-12-05T14:17:50.316Z,17.17
2022-12-05T14:20:05.899Z,17.40
2022-12-05T14:22:21.169Z,16.93
2022-12-05T14:24:28.590Z,16.07
2022-12-05T14:26:41.731Z,15.20
2022-12-05T14:28:55.849Z,16.37
2022-12-05T14:31:15.430Z,16.90
2022-12-05T14:33:19.122Z,15.60
2022-12-05T14:35:27.130Z,18.20
2022-12-05T14:37:31.886Z,17.13
2022-12-05T14:39:40.893Z,17.43
2022-12-05T14:41:47.752Z,17.47
2022-12-05T14:43:53.466Z,15.10
2022-12-05T14:46:00.294Z,14.80
2022-12-05T14:48:04.739Z,13.10
2022-12-05T14:50:37.745Z,15.10
2022-12-05T14:52:41.180Z,13.87
2022-12-05T14:54:44.731Z,14.23
2022-12-05T14:56:54.707Z,14.10
2022-12-05T14:59:00.979Z,14.70
2022-12-05T15:01:07.720Z,14.10
2022-12-05T15:03:20.716Z,15.73
2022-12-05T15:05:25.825Z,14.40
2022-12-05T15:07:33.195Z,13.40
2022-12-05T15:09:48.905Z,14.37
2022-12-05T15:11:53.637Z,16.02
2022-12-05T15:13:59.463Z,16.53
2022-12-05T15:16:05.368Z,15.20
2022-12-05T15:18:15.134Z,13.47
2022-12-05T15:20:23.386Z,14.40
2022-12-05T15:22:28.158Z,15.80
2022-12-05T15:24:38.434Z,13.23
2022-12-05T15:26:47.915Z,13.53
2022-12-05T15:29:07.927Z,14.57
2022-12-05T15:31:13.773Z,14.00
2022-12-05T15:33:18.468Z,13.93
2022-12-05T15:35:22.126Z,13.37
2022-12-05T15:37:27.109Z,13.80
2022-12-05T15:39:30.242Z,13.50
2022-12-05T15:41:33.374Z,15.40
2022-12-05T15:43:37.424Z,14.00
2022-12-05T15:45:42.044Z,13.17
2022-12-05T15:47:46.333Z,14.67
2022-12-05T15:49:49.565Z,12.40
2022-12-05T15:51:55.133Z,14.20
2022-12-05T15:54:02.015Z,12.90
2022-12-05T15:56:07.189Z,14.53
2022-12-05T15:58:15.856Z,13.20
2022-12-05T16:00:22.154Z,13.30
2022-12-05T16:02:30.312Z,13.20
2022-12-05T16:04:36.812Z,13.33
2022-12-05T16:06:42.135Z,13.63
2022-12-05T16:08:46.047Z,11.97
2022-12-05T16:10:49.038Z,13.00
2022-12-05T16:12:52.642Z,13.00
2022-12-05T16:15:00.574Z,12.07
2022-12-05T16:17:04.924Z,14.30
2022-12-05T16:19:15.989Z,15.37
2022-12-05T16:21:38.805Z,14.13
2022-12-05T16:23:44.030Z,13.13
2022-12-05T16:25:47.047Z,12.70
2022-12-05T16:27:58.498Z,12.90
2022-12-05T16:30:10.968Z,11.80
2022-12-05T16:32:21.619Z,11.83
2022-12-05T16:34:27.058Z,13.67
2022-12-05T16:36:30.063Z,11.80
2022-12-05T16:38:33.227Z,11.50
2022-12-05T16:40:36.352Z,13.27
2022-12-05T16:42:39.810Z,12.23
2022-12-05T16:45:01.857Z,13.33
2022-12-05T16:47:05.417Z,11.97
2022-12-05T16:49:25.924Z,12.20
2022-12-05T16:51:41.612Z,11.73
2022-12-05T16:53:47.772Z,12.63
2022-12-05T16:55:51.251Z,12.37
2022-12-05T16:57:54.483Z,12.40
2022-12-05T16:59:58.318Z,10.80
2022-12-05T17:02:02.251Z,11.83
2022-12-05T17:04:05.860Z,10.70
2022-12-05T17:06:10.428Z,12.27
2022-12-05T17:08:13.956Z,10.57
2022-12-05T17:10:18.719Z,11.10
2022-12-05T17:12:24.285Z,10.83
2022-12-05T17:14:27.301Z,10.40
2022-12-05T17:16:30.554Z,10.30
2022-12-05T17:18:34.141Z,11.40
2022-12-05T17:20:39.817Z,10.60
2022-12-05T17:22:52.908Z,10.63
2022-12-05T17:24:59.771Z,10.13
2022-12-05T17:27:03.228Z,9.87
2022-12-05T17:29:06.382Z,9.90
2022-12-05T17:31:11.092Z,10.90
2022-12-05T17:33:15.942Z,10.60
2022-12-05T17:35:21.070Z,10.20
2022-12-05T17:37:24.231Z,10.43
2022-12-05T17:39:29.063Z,9.27
2022-12-05T17:41:32.336Z,9.83
2022-12-05T17:43:35.555Z,9.10
2022-12-05T17:45:38.506Z,11.20
2022-12-05T17:47:41.873Z,10.20
2022-12-05T17:49:45.256Z,10.70
2022-12-05T17:52:20.026Z,11.27
2022-12-05T17:54:12.233Z,10.90
2022-12-05T17:56:16.647Z,11.20
2022-12-05T17:58:19.571Z,11.07
2022-12-05T18:00:23.633Z,10.43
2022-12-05T18:02:26.646Z,9.47
2022-12-05T18:04:29.559Z,11.07
2022-12-05T18:06:33.614Z,10.17
2022-12-05T18:08:39.610Z,10.90
2022-12-05T18:10:43.652Z,10.30
2022-12-05T18:12:48.569Z,10.47
2022-12-05T18:14:51.711Z,10.50
2022-12-05T18:16:54.858Z,10.67
2022-12-05T18:18:57.889Z,9.90
2022-12-05T18:21:07.957Z,9.90
2022-12-05T18:23:11.118Z,9.63
2022-12-05T18:25:14.145Z,9.57
2022-12-05T18:27:17.183Z,9.90
2022-12-05T18:29:22.352Z,9.70
2022-12-05T18:31:25.587Z,9.47
2022-12-05T18:33:28.604Z,9.03
2022-12-05T18:35:52.073Z,9.57
2022-12-05T18:37:55.097Z,8.67
2022-12-05T18:39:58.030Z,10.00
2022-12-05T18:42:01.198Z,9.70
2022-12-05T18:44:04.171Z,10.30
2022-12-05T18:46:08.766Z,10.10
2022-12-05T18:50:36.323Z,9.80
2022-12-05T18:52:39.315Z,10.20
2022-12-05T18:54:42.327Z,10.90
2022-12-05T18:56:46.402Z,10.63
2022-12-05T18:58:54.623Z,10.20
2022-12-05T19:01:05.333Z,9.83
2022-12-05T19:03:09.764Z,11.10
2022-12-05T19:05:15.443Z,9.63
2022-12-05T19:07:18.441Z,9.43
2022-12-05T19:09:35.896Z,10.03
2022-12-05T19:11:47.003Z,10.63
2022-12-05T19:13:50.410Z,10.33
2022-12-05T19:15:54.521Z,10.07
2022-12-05T19:18:00.372Z,9.23
2022-12-05T19:20:06.104Z,8.93
2022-12-05T19:22:09.050Z,10.20
2022-12-05T19:24:16.250Z,9.20
2022-12-05T19:26:23.313Z,9.47
2022-12-05T19:28:26.291Z,10.37
2022-12-05T19:30:29.380Z,9.37
2022-12-05T19:32:35.456Z,9.40
2022-12-05T19:34:42.705Z,8.93
2022-12-05T19:36:47.490Z,9.87
2022-12-05T19:38:52.461Z,9.23
2022-12-05T19:40:57.051Z,9.60
2022-12-05T19:43:00.307Z,9.43
2022-12-05T19:45:07.832Z,9.70
2022-12-05T19:47:12.488Z,10.43
2022-12-05T19:49:17.220Z,10.37
2022-12-05T19:51:20.515Z,10.40
2022-12-05T19:53:25.757Z,9.43
2022-12-05T19:55:31.380Z,9.93
2022-12-05T19:57:36.727Z,10.93
2022-12-05T19:59:39.681Z,11.10
2022-12-05T20:01:42.619Z,9.93
2022-12-05T20:03:48.789Z,11.20
2022-12-05T20:05:58.411Z,10.07
2022-12-05T20:08:07.429Z,9.90
2022-12-05T20:10:12.461Z,10.40
2022-12-05T20:12:15.368Z,11.10
2022-12-05T20:14:18.891Z,9.70
2022-12-05T20:16:23.123Z,9.30
2022-12-05T20:18:28.307Z,8.70
2022-12-05T20:20:33.891Z,8.80
2022-12-05T20:22:36.791Z,9.33
2022-12-05T20:24:42.957Z,10.00
2022-12-05T20:26:47.545Z,8.90
2022-12-05T20:28:50.733Z,10.10
2022-12-05T20:30:53.726Z,8.90
2022-12-05T20:32:56.688Z,9.80
2022-12-05T20:35:02.004Z,8.50
2022-12-05T20:37:04.973Z,9.10
2022-12-05T20:39:14.996Z,10.37
2022-12-05T20:41:19.602Z,10.33
2022-12-05T20:43:25.766Z,10.10
2022-12-05T20:45:28.734Z,9.87
2022-12-05T20:47:32.133Z,10.53
2022-12-05T20:49:35.151Z,10.80
2022-12-05T20:51:44.613Z,10.50
2022-12-05T20:53:50.776Z,9.60
2022-12-05T20:55:53.654Z,9.53
2022-12-05T20:57:59.275Z,9.57
2022-12-05T21:00:08.647Z,10.97
2022-12-05T21:02:13.790Z,10.20
2022-12-05T21:04:16.937Z,9.23
2022-12-05T21:06:21.835Z,9.57
2022-12-05T21:08:24.892Z,10.00
2022-12-05T21:10:27.921Z,10.47
2022-12-05T21:12:30.869Z,11.00
2022-12-05T21:14:34.292Z,11.33
2022-12-05T21:16:38.789Z,11.37
2022-12-05T21:18:42.201Z,10.63
2022-12-05T21:20:45.447Z,10.10
2022-12-05T21:22:48.365Z,11.70
2022-12-05T21:24:51.256Z,10.90
2022-12-05T21:26:54.221Z,11.40
2022-12-05T21:28:57.617Z,12.17
2022-12-05T21:31:07.036Z,10.50
2022-12-05T21:33:11.723Z,11.40
2022-12-05T21:35:14.689Z,12.50
2022-12-05T21:37:17.673Z,11.10
2022-12-05T21:39:21.004Z,10.53
2022-12-05T21:41:24.107Z,10.60
2022-12-05T21:43:29.830Z,11.93
2022-12-05T21:49:11.393Z,11.00
2022-12-05T21:51:14.695Z,11.40
2022-12-05T21:53:17.896Z,11.50
2022-12-05T21:55:20.867Z,11.97
2022-12-05T21:57:24.213Z,11.20
2022-12-05T21:59:29.332Z,10.70
2022-12-05T22:01:33.232Z,11.30
2022-12-05T22:03:36.419Z,12.43
2022-12-05T22:05:41.115Z,12.00
2022-12-05T22:07:44.185Z,11.60
2022-12-05T22:09:47.202Z,11.73
2022-12-05T22:11:50.275Z,11.00
2022-12-05T22:13:54.621Z,9.87
2022-12-05T22:15:58.951Z,12.00
2022-12-05T22:18:02.203Z,9.80
2022-12-05T22:20:06.867Z,11.23
2022-12-05T22:22:11.350Z,9.30
2022-12-05T22:24:14.473Z,10.40
2022-12-05T22:26:20.870Z,9.67
2022-12-05T22:28:23.751Z,9.77
2022-12-05T22:30:26.716Z,10.40
2022-12-05T22:32:29.884Z,10.20
2022-12-05T22:34:32.886Z,8.90
2022-12-05T22:36:35.891Z,10.07
2022-12-05T22:38:41.879Z,9.30
2022-12-05T22:40:44.922Z,9.33
2022-12-05T22:42:48.025Z,9.37
2022-12-05T22:44:51.260Z,8.57
2022-12-05T22:46:55.080Z,8.90
2022-12-05T22:48:58.406Z,9.30
2022-12-05T22:51:02.729Z,10.00
2022-12-05T22:53:05.599Z,9.23
2022-12-05T22:55:10.411Z,8.80
2022-12-05T22:57:13.381Z,10.00
2022-12-05T22:59:16.778Z,9.40
2022-12-05T23:01:23.129Z,9.70
2022-12-05T23:03:26.114Z,9.60
2022-12-05T23:05:32.037Z,9.90
2022-12-05T23:07:34.982Z,10.27
2022-12-05T23:09:37.883Z,9.40
2022-12-05T23:11:42.181Z,9.40
2022-12-05T23:13:45.665Z,9.60
2022-12-05T23:15:48.597Z,9.83
2022-12-05T23:17:51.483Z,9.03
2022-12-05T23:19:54.352Z,10.53
2022-12-05T23:21:57.540Z,10.03
2022-12-05T23:24:01.798Z,9.37
2022-12-05T23:26:04.623Z,9.40
2022-12-05T23:28:08.883Z,8.80
2022-12-05T23:30:13.341Z,9.80
2022-12-05T23:32:16.547Z,9.53
2022-12-05T23:34:20.019Z,9.10
2022-12-05T23:36:22.869Z,9.80
2022-12-05T23:38:26.250Z,8.37
2022-12-05T23:40:29.162Z,9.87
2022-12-05T23:42:31.992Z,9.33
2022-12-05T23:44:36.944Z,8.57
2022-12-05T23:46:40.629Z,10.57
2022-12-05T23:48:44.180Z,9.60
2022-12-05T23:50:58.014Z,9.20
2022-12-05T23:53:01.925Z,8.67
2022-12-05T23:55:05.644Z,9.30
2022-12-05T23:57:12.129Z,8.73
2022-12-05T23:59:17.839Z,8.80
